createdAt,value
2022-11-08T00:05:21.906Z,8.57
2022-11-08T00:10:44.365Z,8.64
2022-11-08T00:15:47.779Z,8.71
2022-11-08T00:20:51.724Z,8.76
2022-11-08T00:25:55.528Z,8.83
2022-11-08T00:30:58.939Z,8.90
2022-11-08T00:36:03.994Z,8.96
2022-11-08T00:41:07.308Z,9.02
2022-11-08T00:46:10.616Z,9.08
2022-11-08T00:51:14.025Z,9.13
2022-11-08T00:56:17.440Z,9.17
2022-11-08T01:01:22.054Z,9.22
2022-11-08T01:06:26.417Z,9.26
2022-11-08T01:11:29.829Z,9.28
2022-11-08T01:16:34.274Z,9.26
2022-11-08T01:21:37.373Z,9.24
2022-11-08T01:26:40.785Z,9.24
2022-11-08T01:31:44.199Z,9.20
2022-11-08T01:36:47.511Z,9.24
2022-11-08T01:41:50.923Z,9.25
2022-11-08T01:46:54.338Z,9.20
2022-11-08T01:52:15.778Z,9.17
2022-11-08T01:57:26.762Z,9.08
2022-11-08T02:02:30.268Z,9.04
2022-11-08T02:07:34.472Z,9.03
2022-11-08T02:12:37.922Z,9.04
2022-11-08T02:17:41.344Z,9.05
2022-11-08T02:23:18.645Z,9.07
2022-11-08T02:28:22.159Z,9.13
2022-11-08T02:33:25.369Z,9.17
2022-11-08T02:38:29.703Z,9.21
2022-11-08T02:43:32.919Z,9.24
2022-11-08T02:48:36.533Z,9.25
2022-11-08T02:53:39.848Z,9.22
2022-11-08T02:58:43.353Z,9.14
2022-11-08T03:03:46.668Z,9.04
2022-11-08T03:08:50.078Z,8.94
2022-11-08T03:13:53.594Z,8.83
2022-11-08T03:18:57.111Z,8.73
2022-11-08T03:24:00.524Z,8.66
2022-11-08T03:29:03.935Z,8.62
2022-11-08T03:34:07.183Z,8.62
2022-11-08T03:39:11.890Z,8.63
2022-11-08T03:44:15.201Z,8.67
2022-11-08T03:49:18.617Z,8.74
2022-11-08T03:54:22.025Z,8.81
2022-11-08T03:59:25.440Z,8.87
2022-11-08T04:04:28.853Z,8.92
2022-11-08T04:09:32.269Z,8.95
2022-11-08T04:14:54.622Z,8.97
2022-11-08T04:20:16.981Z,9.00
2022-11-08T04:25:20.290Z,9.03
2022-11-08T04:30:23.703Z,9.06
2022-11-08T04:35:27.116Z,9.10
2022-11-08T04:40:31.384Z,9.15
2022-11-08T04:45:34.559Z,9.20
2022-11-08T04:50:38.074Z,9.20
2022-11-08T04:55:41.384Z,9.19
2022-11-08T05:00:45.005Z,9.18
2022-11-08T05:05:48.314Z,9.20
2022-11-08T05:10:52.034Z,9.19
2022-11-08T05:15:55.346Z,9.24
2022-11-08T05:21:19.237Z,9.26
2022-11-08T05:26:23.017Z,9.30
2022-11-08T05:31:26.269Z,9.30
2022-11-08T05:36:29.686Z,9.29
2022-11-08T05:41:33.095Z,9.25
2022-11-08T05:46:36.546Z,9.23
2022-11-08T05:51:39.925Z,9.22
2022-11-08T05:56:43.438Z,9.18
2022-11-08T06:01:55.817Z,9.15
2022-11-08T06:06:59.172Z,9.11
2022-11-08T06:12:02.688Z,9.08
2022-11-08T06:17:06.412Z,9.07
2022-11-08T06:22:09.821Z,9.05
2022-11-08T06:27:14.878Z,9.05
2022-11-08T06:32:18.392Z,9.08
2022-11-08T06:37:21.702Z,9.17
2022-11-08T06:42:26.132Z,9.25
2022-11-08T06:47:29.247Z,9.35
2022-11-08T06:52:32.860Z,9.48
2022-11-08T06:57:36.375Z,9.61
2022-11-08T07:02:40.035Z,9.71
2022-11-08T07:07:43.713Z,9.85
2022-11-08T07:12:47.845Z,10.04
2022-11-08T07:17:51.195Z,10.23
2022-11-08T07:22:56.220Z,10.39
2022-11-08T07:28:02.954Z,10.58
2022-11-08T07:33:06.616Z,10.69
2022-11-08T07:38:10.032Z,10.87
2022-11-08T07:43:13.853Z,11.04
2022-11-08T07:48:17.062Z,11.20
2022-11-08T07:53:21.387Z,11.33
2022-11-08T07:58:24.912Z,11.40
2022-11-08T08:03:28.608Z,11.41
2022-11-08T08:08:32.047Z,11.39
2022-11-08T08:13:35.662Z,11.43
2022-11-08T08:18:38.973Z,11.43
2022-11-08T08:23:42.491Z,11.45
2022-11-08T08:28:45.801Z,11.59
2022-11-08T08:33:49.212Z,11.71
2022-11-08T08:38:52.524Z,11.90
2022-11-08T08:43:56.246Z,12.03
2022-11-08T08:48:59.555Z,12.15
2022-11-08T08:54:03.173Z,12.30
2022-11-08T09:04:29.969Z,12.62
2022-11-08T09:09:34.509Z,12.65
2022-11-08T09:14:37.920Z,12.75
2022-11-08T09:19:41.335Z,12.84
2022-11-08T09:24:44.751Z,13.00
2022-11-08T09:29:48.058Z,13.05
2022-11-08T09:34:52.380Z,13.02
2022-11-08T09:39:55.808Z,13.13
2022-11-08T09:45:07.618Z,13.31
2022-11-08T09:50:13.691Z,13.54
2022-11-08T09:55:32.163Z,13.60
2022-11-08T10:00:39.305Z,13.71
2022-11-08T10:05:50.656Z,13.71
2022-11-08T10:11:21.923Z,13.72
2022-11-08T10:16:40.184Z,13.58
2022-11-08T10:22:05.732Z,13.45
2022-11-08T10:27:31.044Z,13.47
2022-11-08T10:32:36.130Z,13.62
2022-11-08T10:37:42.651Z,13.86
2022-11-08T10:42:51.728Z,14.26
2022-11-08T10:47:55.549Z,14.49
2022-11-08T10:53:01.730Z,14.52
2022-11-08T10:58:26.542Z,14.49
2022-11-08T11:03:30.776Z,14.42
2022-11-08T11:08:34.294Z,14.41
2022-11-08T11:13:37.503Z,14.45
2022-11-08T11:18:52.907Z,14.46
2022-11-08T11:24:08.176Z,14.44
2022-11-08T11:29:22.558Z,14.46
2022-11-08T11:34:40.823Z,14.56
2022-11-08T11:39:51.294Z,14.68
2022-11-08T11:45:03.514Z,14.94
2022-11-08T11:50:19.727Z,15.20
2022-11-08T11:55:37.476Z,15.28
2022-11-08T12:00:51.748Z,15.22
2022-11-08T12:06:00.789Z,15.16
2022-11-08T12:11:40.143Z,15.16
2022-11-08T12:17:14.487Z,15.17
2022-11-08T12:22:35.819Z,15.18
2022-11-08T12:27:52.786Z,15.16
2022-11-08T12:33:21.047Z,15.17
2022-11-08T12:38:38.484Z,15.18
2022-11-08T12:44:15.895Z,15.20
2022-11-08T12:49:34.463Z,15.25
2022-11-08T12:54:53.952Z,15.24
2022-11-08T13:00:29.729Z,15.19
2022-11-08T13:05:38.157Z,15.19
2022-11-08T13:10:43.618Z,15.17
2022-11-08T13:16:16.933Z,15.14
2022-11-08T13:21:25.992Z,15.11
2022-11-08T13:26:32.034Z,15.02
2022-11-08T13:31:38.129Z,15.02
2022-11-08T13:36:53.011Z,15.01
2022-11-08T13:42:25.200Z,15.02
2022-11-08T13:47:34.855Z,14.97
2022-11-08T13:53:03.973Z,14.85
2022-11-08T13:58:35.954Z,14.78
2022-11-08T14:03:42.238Z,14.70
2022-11-08T14:09:42.994Z,14.58
2022-11-08T14:14:55.322Z,14.42
2022-11-08T14:20:17.931Z,14.22
2022-11-08T14:25:31.940Z,13.99
2022-11-08T14:30:35.257Z,13.76
2022-11-08T14:35:40.403Z,13.57
2022-11-08T14:41:01.235Z,13.39
2022-11-08T14:46:14.674Z,13.22
2022-11-08T14:51:18.805Z,13.03
2022-11-08T14:56:25.390Z,12.83
2022-11-08T15:01:30.151Z,12.65
2022-11-08T15:06:41.199Z,12.47
2022-11-08T15:11:52.903Z,12.32
2022-11-08T15:17:02.498Z,12.17
2022-11-08T15:22:33.659Z,12.01
2022-11-08T15:27:36.969Z,11.87
2022-11-08T15:32:40.692Z,11.76
2022-11-08T15:37:44.101Z,11.64
2022-11-08T15:42:51.002Z,11.54
2022-11-08T15:48:01.857Z,11.45
2022-11-08T15:53:06.998Z,11.33
2022-11-08T15:58:28.384Z,11.22
2022-11-08T16:03:33.937Z,11.15
2022-11-08T16:08:37.151Z,11.08
2022-11-08T16:13:40.766Z,10.98
2022-11-08T16:18:44.892Z,10.91
2022-11-08T16:23:48.208Z,10.85
2022-11-08T16:28:51.618Z,10.80
2022-11-08T16:33:56.363Z,10.75
2022-11-08T16:39:02.131Z,10.72
2022-11-08T16:44:05.852Z,10.69
2022-11-08T16:49:20.432Z,10.67
2022-11-08T16:54:28.616Z,10.66
2022-11-08T16:59:32.268Z,10.62
2022-11-08T17:04:35.606Z,10.59
2022-11-08T17:09:38.997Z,10.57
2022-11-08T17:14:42.509Z,10.56
2022-11-08T17:19:45.822Z,10.54
2022-11-08T17:24:49.234Z,10.53
2022-11-08T17:29:52.647Z,10.54
2022-11-08T17:34:56.165Z,10.53
2022-11-08T17:39:59.881Z,10.54
2022-11-08T17:45:07.993Z,10.54
2022-11-08T17:50:11.949Z,10.54
2022-11-08T17:55:15.445Z,10.56
2022-11-08T18:00:19.279Z,10.59
2022-11-08T18:05:22.999Z,10.62
2022-11-08T18:10:26.914Z,10.65
2022-11-08T18:15:30.224Z,10.69
2022-11-08T18:20:33.640Z,10.70
2022-11-08T18:25:37.153Z,10.70
2022-11-08T18:30:42.907Z,10.70
2022-11-08T18:35:48.689Z,10.72
2022-11-08T18:40:52.515Z,10.71
2022-11-08T18:45:56.232Z,10.72
2022-11-08T18:50:59.647Z,10.70
2022-11-08T18:56:06.839Z,10.69
2022-11-08T19:01:10.401Z,10.68
2022-11-08T19:06:14.289Z,10.67
2022-11-08T19:11:21.593Z,10.67
2022-11-08T19:16:25.317Z,10.67
2022-11-08T19:21:29.137Z,10.65
2022-11-08T19:26:32.345Z,10.64
2022-11-08T19:31:39.342Z,10.64
2022-11-08T19:36:45.725Z,10.63
2022-11-08T19:41:49.241Z,10.62
2022-11-08T19:46:52.654Z,10.62
2022-11-08T19:51:56.680Z,10.62
2022-11-08T19:57:04.578Z,10.62
2022-11-08T20:02:09.334Z,10.61
2022-11-08T20:07:12.711Z,10.61
2022-11-08T20:12:16.172Z,10.61
2022-11-08T20:17:19.584Z,10.61
2022-11-08T20:22:23.507Z,10.63
2022-11-08T20:27:26.926Z,10.64
2022-11-08T20:32:30.447Z,10.66
2022-11-08T20:37:33.855Z,10.67
2022-11-08T20:42:37.776Z,10.67
2022-11-08T20:47:41.189Z,10.68
2022-11-08T20:52:45.216Z,10.69
2022-11-08T20:57:50.062Z,10.70
2022-11-08T21:02:53.475Z,10.71
2022-11-08T21:08:56.507Z,10.73
2022-11-08T21:13:20.270Z,10.74
2022-11-08T21:18:24.811Z,10.76
2022-11-08T21:23:28.632Z,10.76
2022-11-08T21:28:32.358Z,10.76
2022-11-08T21:33:36.585Z,10.78
2022-11-08T21:38:40.407Z,10.81
2022-11-08T21:43:45.460Z,10.82
2022-11-08T21:48:56.859Z,10.82
2022-11-08T21:54:00.685Z,10.88
2022-11-08T21:59:04.103Z,10.89
2022-11-08T22:04:07.615Z,10.92
2022-11-08T22:09:11.125Z,10.93
2022-11-08T22:14:14.754Z,10.93
2022-11-08T22:19:18.160Z,10.93
2022-11-08T22:24:21.696Z,10.90
2022-11-08T22:29:25.086Z,10.87
2022-11-08T22:34:28.601Z,10.80
2022-11-08T22:39:32.017Z,10.74
2022-11-08T22:44:35.428Z,10.67
2022-11-08T22:49:43.960Z,10.62
2022-11-08T22:54:48.602Z,10.60
2022-11-08T22:59:52.123Z,10.57
2022-11-08T23:04:55.639Z,10.55
2022-11-08T23:09:59.258Z,10.52
2022-11-08T23:15:21.307Z,10.51
2022-11-08T23:20:43.356Z,10.51
2022-11-08T23:25:46.977Z,10.49
2022-11-08T23:31:09.128Z,10.49
2022-11-08T23:36:12.858Z,10.51
2022-11-08T23:41:35.206Z,10.52
2022-11-08T23:46:39.029Z,10.54
2022-11-08T23:51:42.648Z,10.56
2022-11-08T23:56:46.575Z,10.56
